FW8589 Weather Reports


Display with metric or nautical units.
time (UTC)temp
F
wind
direction
speed
MPH
gust
MPH
rain 1hr
in
rain 24hr
in
rain mn
in
humidity
%
barometer
mb
20240620145018 88 293 4.0 7.0 0.00 0.00 0.00 35 1017.2
20240620144229 88 270 4.0 7.0 0.00 0.00 0.00 35 1017.4
20240620143017 87 315 4.0 8.0 0.00 0.00 0.00 37 1017.4
20240620142018 84 293 5.0 8.0 0.00 0.00 0.00 47 1017.5
20240620141017 83 315 4.0 8.0 0.00 0.00 0.00 56 1017.7
20240620140018 84 293 5.0 9.0 0.00 0.00 0.00 59 1017.7
20240620135017 84 293 5.0 8.0 0.00 0.00 0.00 58 1017.7
20240620134017 83 270 6.0 10.0 0.00 0.00 0.00 59 1017.6
20240620133017 86 248 4.0 9.0 0.00 0.00 0.00 46 1017.4
20240620132018 86 248 4.0 7.0 0.00 0.00 0.00 46 1017.3
20240620131017 86 270 3.0 6.0 0.00 0.00 0.00 46 1017.6
20240620130018 85 248 4.0 7.0 0.00 0.00 0.00 47 1017.7
20240620125017 85 293 6.0 9.0 0.00 0.00 0.00 48 1017.9
20240620124230 84 270 5.0 7.0 0.00 0.00 0.00 50 1018.0
20240620123017 84 293 7.0 10.0 0.00 0.00 0.00 52 1018.2
20240620122018 83 293 9.0 12.0 0.00 0.00 0.00 52 1018.5
20240620121018 83 293 8.0 11.0 0.00 0.00 0.00 50 1018.6
20240620120017 83 293 8.0 12.0 0.00 0.00 0.00 53 1018.7
20240620115017 83 315 6.0 11.0 0.00 0.00 0.00 54 1018.9
20240620114017 81 293 9.0 13.0 0.00 0.00 0.00 55 1019.1
20240620113018 82 293 6.0 11.0 0.00 0.00 0.00 56 1019.1
20240620112017 81 293 8.0 12.0 0.00 0.00 0.00 57 1019.1
20240620111018 82 293 7.0 11.0 0.00 0.00 0.00 51 1019.1
20240620110017 82 293 7.0 11.0 0.00 0.00 0.00 54 1019.0
20240620105017 81 293 5.0 9.0 0.00 0.00 0.00 55 1019.0
20240620104018 80 270 6.0 10.0 0.00 0.00 0.00 63 1019.0
20240620103016 81 293 7.0 11.0 0.00 0.00 0.00 59 1019.2
20240620102016 81 293 6.0 8.0 0.00 0.00 0.00 52 1019.0
20240620101017 80 270 6.0 9.0 0.00 0.00 0.00 53 1018.8
20240620100016 80 270 5.0 8.0 0.00 0.00 0.00 52 1018.9
20240620095017 81 270 5.0 8.0 0.00 0.00 0.00 47 1018.8
20240620094016 81 293 5.0 8.0 0.00 0.00 0.00 46 1018.7
20240620093017 82 270 5.0 8.0 0.00 0.00 0.00 41 1018.7
20240620092016 82 270 5.0 7.0 0.00 0.00 0.00 41 1018.6
20240620091016 82 293 3.0 6.0 0.00 0.00 0.00 40 1018.5
20240620090439 82 270 5.0 8.0 0.00 0.00 0.00 46 1018.6
20240620085016 81 270 6.0 9.0 0.00 0.00 0.00 50 1018.5
20240620084018 82 270 4.0 6.0 0.00 0.00 0.00 48 1018.4
20240620083017 82 270 4.0 8.0 0.00 0.00 0.00 52 1018.4
20240620082016 83 293 3.0 6.0 0.00 0.00 0.00 49 1018.3
20240620081016 81 293 1.0 3.0 0.00 0.00 0.00 57 1018.2
20240620080017 79 0.0 2.0 0.00 0.00 0.00 63 1018.2
20240620075017 78 293 1.0 3.0 0.00 0.00 0.00 65 1018.3
20240620074017 77 293 3.0 4.0 0.00 0.00 0.00 66 1018.3
20240620073018 77 248 4.0 5.0 0.00 0.00 0.00 67 1018.3
20240620072017 79 248 2.0 4.0 0.00 0.00 0.00 63 1018.1
20240620071017 79 248 1.0 3.0 0.00 0.00 0.00 62 1018.1
20240620070018 78 248 3.0 5.0 0.00 0.00 0.00 61 1018.0
20240620065016 79 270 5.0 7.0 0.00 0.00 0.00 59 1017.9
20240620064016 81 338 1.0 3.0 0.00 0.00 0.00 49 1017.6
20240620063016 81 315 2.0 4.0 0.00 0.00 0.00 54 1017.8
20240620062016 81 248 2.0 3.0 0.00 0.00 0.00 53 1018.1
20240620061016 82 203 2.0 4.0 0.00 0.00 0.00 41 1018.0
20240620060228 81 180 3.0 5.0 0.00 0.00 0.00 41 1018.0
20240620055016 80 180 5.0 7.0 0.00 0.00 0.00 40 1017.8
20240620054016 81 135 5.0 8.0 0.00 0.00 0.00 38 1017.5
20240620053020 81 90 5.0 7.0 0.00 0.00 0.00 36 1017.7
20240620052227 81 68 7.0 8.0 0.00 0.00 0.00 36 1017.8
20240620051016 80 90 5.0 7.0 0.00 0.00 0.00 37 1018.0
20240620050016 80 90 4.0 5.0 0.00 0.00 0.00 38 1018.1
20240620045016 80 45 2.0 3.0 0.00 0.00 0.00 37 1018.2
20240620044018 79 45 3.0 5.0 0.00 0.00 0.00 37 1018.2
20240620043018 78 68 4.0 6.0 0.00 0.00 0.00 43 1018.2
20240620042018 76 45 4.0 6.0 0.00 0.00 0.00 51 1018.3
20240620041018 75 338 5.0 8.0 0.00 0.00 0.00 62 1018.4
20240620040017 76 338 5.0 6.0 0.00 0.00 0.00 54 1018.6
20240620035016 76 23 5.0 7.0 0.00 0.00 0.00 49 1018.5
20240620034017 77 68 1.0 3.0 0.00 0.00 0.00 53 1018.5
20240620033018 78 68 2.0 4.0 0.00 0.00 0.00 50 1018.4
20240620032018 79 68 1.0 3.0 0.00 0.00 0.00 43 1018.0
20240620031017 81 0.0 2.0 0.00 0.00 0.00 38 1018.0
20240620030018 82 68 5.0 7.0 0.00 0.00 0.00 36 1018.1
20240620025017 82 90 5.0 7.0 0.00 0.00 0.00 36 1018.1
20240620024227 82 68 5.0 7.0 0.00 0.00 0.00 37 1018.1
20240620023017 82 90 5.0 8.0 0.00 0.00 0.00 37 1018.0
20240620022018 82 90 7.0 9.0 0.00 0.00 0.00 38 1017.9
20240620021017 82 90 5.0 7.0 0.00 0.00 0.00 38 1017.9
20240620020017 82 68 5.0 7.0 0.00 0.00 0.00 37 1017.7
20240620015018 81 68 7.0 8.0 0.00 0.00 0.00 37 1017.8
20240620014017 81 90 5.0 7.0 0.00 0.00 0.00 37 1018.0
20240620013017 82 68 4.0 4.0 0.00 0.00 0.00 36 1018.3
20240620012230 81 68 3.0 4.0 0.00 0.00 0.00 36 1018.2
20240620011018 81 68 3.0 4.0 0.00 0.00 0.00 36 1018.2
20240620010019 82 68 2.0 3.0 0.00 0.00 0.00 37 1018.3
20240620005227 82 68 3.0 3.0 0.00 0.00 0.00 37 1018.4
20240620004228 81 68 2.0 3.0 0.00 0.00 0.00 38 1018.4
20240620003020 81 68 3.0 4.0 0.00 0.00 0.00 40 1018.5
20240620002017 81 23 2.0 4.0 0.00 0.00 0.00 42 1018.5
20240620001017 81 0 3.0 4.0 0.00 0.00 0.00 42 1018.6
20240620000017 81 0 2.0 3.0 0.00 0.00 0.00 42 1018.6
20240619235017 80 0 4.0 5.0 0.00 0.00 0.00 44 1018.6
20240619234017 80 68 3.0 4.0 0.00 0.00 0.00 44 1018.8
20240619233017 80 315 2.0 3.0 0.00 0.00 0.00 45 1018.9
20240619232230 81 293 1.0 2.0 0.00 0.00 0.00 44 1018.9
20240619231018 81 293 4.0 7.0 0.00 0.00 0.00 44 1019.0
20240619230017 82 158 4.0 6.0 0.00 0.00 0.00 40 1018.7
20240619225016 82 270 2.0 3.0 0.00 0.00 0.00 40 1019.0
20240619224016 82 113 3.0 8.0 0.00 0.00 0.00 40 1018.9
20240619223017 83 293 7.0 11.0 0.00 0.00 0.00 40 1019.0
20240619222444 83 90 8.0 13.0 0.00 0.00 0.00 38 1018.5
20240619221018 83 90 10.0 13.0 0.00 0.00 0.00 39 1018.3
20240619220017 82 90 11.0 16.0 0.00 0.00 0.00 39 1018.3
20240619215017 82 90 14.0 18.0 0.00 0.00 0.00 39 1018.2
20240619214017 83 90 13.0 17.0 0.00 0.00 0.00 38 1018.3
20240619213016 82 90 11.0 15.0 0.00 0.00 0.00 38 1018.5
20240619212226 83 90 9.0 13.0 0.00 0.00 0.00 38 1018.6
20240619211017 83 90 11.0 15.0 0.00 0.00 0.00 38 1018.5
20240619210016 83 90 11.0 17.0 0.00 0.00 0.00 37 1018.5
20240619205016 83 90 9.0 13.0 0.00 0.00 0.00 38 1019.0
20240619204017 83 90 9.0 13.0 0.00 0.00 0.00 39 1019.1
20240619203018 82 90 8.0 12.0 0.00 0.00 0.00 38 1019.2
20240619202016 82 135 4.0 8.0 0.00 0.00 0.00 37 1019.4
20240619201017 83 90 7.0 11.0 0.00 0.00 0.00 35 1019.4
20240619200016 82 90 8.0 11.0 0.00 0.00 0.00 36 1019.2
20240619195017 82 135 5.0 8.0 0.00 0.00 0.00 36 1019.3
20240619194226 82 113 4.0 7.0 0.00 0.00 0.00 36 1019.5
20240619193016 83 113 5.0 8.0 0.00 0.00 0.00 36 1019.3
20240619192017 84 113 5.0 9.0 0.00 0.00 0.00 35 1019.2
20240619191442 84 90 8.0 12.0 0.00 0.00 0.00 34 1018.9
20240619190016 84 90 10.0 16.0 0.00 0.00 0.00 35 1018.6
20240619185016 83 90 12.0 16.0 0.00 0.00 0.00 37 1018.2
20240619184227 83 90 15.0 20.0 0.00 0.00 0.00 38 1017.9
20240619183016 83 90 12.0 16.0 0.00 0.00 0.00 38 1018.1
20240619182017 83 113 10.0 15.0 0.00 0.00 0.00 39 1018.2
20240619181230 83 113 8.0 14.0 0.00 0.00 0.00 39 1018.3
20240619180018 83 90 11.0 18.0 0.00 0.00 0.00 38 1018.3
20240619175232 83 90 11.0 16.0 0.00 0.00 0.00 37 1018.1
20240619174017 84 90 10.0 16.0 0.00 0.00 0.00 37 1018.2
20240619173018 84 90 11.0 16.0 0.00 0.00 0.00 36 1018.1
20240619172018 85 90 11.0 17.0 0.00 0.00 0.00 34 1018.4
20240619171018 85 90 8.0 11.0 0.00 0.00 0.00 34 1018.6
20240619170017 86 90 5.0 9.0 0.00 0.00 0.00 33 1019.0
20240619165018 86 90 6.0 12.0 0.00 0.00 0.00 32 1019.0
20240619164017 85 90 7.0 11.0 0.00 0.00 0.00 32 1019.1
20240619163017 86 90 7.0 11.0 0.00 0.00 0.00 32 1019.2
20240619162018 86 90 8.0 11.0 0.00 0.00 0.00 32 1019.3
20240619161017 86 90 4.0 9.0 0.00 0.00 0.00 33 1019.4
20240619160017 86 180 4.0 8.0 0.00 0.00 0.00 33 1019.4
20240619155228 86 158 6.0 10.0 0.00 0.00 0.00 34 1019.3
20240619154017 86 90 3.0 9.0 0.00 0.00 0.00 34 1019.4
20240619153017 85 135 5.0 9.0 0.00 0.00 0.00 34 1019.4
20240619152018 85 90 5.0 9.0 0.00 0.00 0.00 34 1019.5
20240619151018 84 113 8.0 15.0 0.00 0.00 0.00 36 1018.7